sensor_id;sensor_type;location;lat;lon;timestamp;P1;durP1;ratioP1;P2;durP2;ratioP2
1777;SDS011;886;50.082;8.222;2023-03-14T00:00:05;3.37;;;3.07;;
1777;SDS011;886;50.082;8.222;2023-03-14T00:02:35;2.37;;;1.93;;
1777;SDS011;886;50.082;8.222;2023-03-14T00:05:04;2.47;;;1.93;;
1777;SDS011;886;50.082;8.222;2023-03-14T00:07:33;3.40;;;3.10;;
1777;SDS011;886;50.082;8.222;2023-03-14T00:10:02;2.60;;;2.03;;
1777;SDS011;886;50.082;8.222;2023-03-14T00:12:31;3.87;;;1.60;;
1777;SDS011;886;50.082;8.222;2023-03-14T00:14:59;2.13;;;1.50;;
1777;SDS011;886;50.082;8.222;2023-03-14T00:17:28;2.07;;;1.47;;
1777;SDS011;886;50.082;8.222;2023-03-14T00:19:56;1.40;;;1.30;;
1777;SDS011;886;50.082;8.222;2023-03-14T00:22:31;2.73;;;1.30;;
1777;SDS011;886;50.082;8.222;2023-03-14T00:24:58;1.63;;;1.40;;
1777;SDS011;886;50.082;8.222;2023-03-14T00:27:25;3.50;;;1.90;;
1777;SDS011;886;50.082;8.222;2023-03-14T00:29:52;1.60;;;1.50;;
1777;SDS011;886;50.082;8.222;2023-03-14T00:32:20;1.80;;;1.70;;
1777;SDS011;886;50.082;8.222;2023-03-14T00:34:47;2.53;;;1.60;;
1777;SDS011;886;50.082;8.222;2023-03-14T00:37:15;3.80;;;3.20;;
1777;SDS011;886;50.082;8.222;2023-03-14T00:39:43;4.40;;;3.40;;
1777;SDS011;886;50.082;8.222;2023-03-14T00:42:11;8.23;;;3.90;;
1777;SDS011;886;50.082;8.222;2023-03-14T00:44:38;6.93;;;3.70;;
1777;SDS011;886;50.082;8.222;2023-03-14T00:47:05;4.47;;;4.13;;
1777;SDS011;886;50.082;8.222;2023-03-14T00:49:33;3.30;;;3.00;;
1777;SDS011;886;50.082;8.222;2023-03-14T00:52:00;2.63;;;2.13;;
1777;SDS011;886;50.082;8.222;2023-03-14T00:54:28;3.57;;;2.10;;
1777;SDS011;886;50.082;8.222;2023-03-14T00:56:56;2.50;;;1.77;;
1777;SDS011;886;50.082;8.222;2023-03-14T00:59:23;4.00;;;1.93;;
1777;SDS011;886;50.082;8.222;2023-03-14T01:01:50;2.20;;;2.00;;
1777;SDS011;886;50.082;8.222;2023-03-14T01:04:18;5.17;;;1.67;;
1777;SDS011;886;50.082;8.222;2023-03-14T01:06:45;1.60;;;1.13;;
1777;SDS011;886;50.082;8.222;2023-03-14T01:09:12;4.30;;;2.00;;
1777;SDS011;886;50.082;8.222;2023-03-14T01:11:40;1.73;;;1.63;;
1777;SDS011;886;50.082;8.222;2023-03-14T01:14:08;5.13;;;1.60;;
1777;SDS011;886;50.082;8.222;2023-03-14T01:16:37;6.17;;;1.90;;
1777;SDS011;886;50.082;8.222;2023-03-14T01:19:04;1.60;;;1.50;;
1777;SDS011;886;50.082;8.222;2023-03-14T01:21:32;5.87;;;2.07;;
1777;SDS011;886;50.082;8.222;2023-03-14T01:24:02;6.17;;;2.43;;
1777;SDS011;886;50.082;8.222;2023-03-14T01:26:32;4.47;;;2.00;;
1777;SDS011;886;50.082;8.222;2023-03-14T01:29:01;7.63;;;1.97;;
1777;SDS011;886;50.082;8.222;2023-03-14T01:31:31;3.20;;;1.70;;
1777;SDS011;886;50.082;8.222;2023-03-14T01:33:59;2.40;;;1.13;;
1777;SDS011;886;50.082;8.222;2023-03-14T01:36:26;1.30;;;1.20;;
1777;SDS011;886;50.082;8.222;2023-03-14T01:38:56;2.37;;;1.40;;
1777;SDS011;886;50.082;8.222;2023-03-14T01:41:24;2.83;;;1.40;;
1777;SDS011;886;50.082;8.222;2023-03-14T01:43:53;2.40;;;1.30;;
1777;SDS011;886;50.082;8.222;2023-03-14T01:46:28;2.80;;;1.30;;
1777;SDS011;886;50.082;8.222;2023-03-14T01:49:09;1.83;;;1.40;;
1777;SDS011;886;50.082;8.222;2023-03-14T01:51:45;5.30;;;1.50;;
1777;SDS011;886;50.082;8.222;2023-03-14T01:54:18;1.97;;;1.30;;
1777;SDS011;886;50.082;8.222;2023-03-14T01:56:50;1.43;;;1.33;;
1777;SDS011;886;50.082;8.222;2023-03-14T01:59:23;2.30;;;1.30;;
1777;SDS011;886;50.082;8.222;2023-03-14T02:01:52;2.20;;;1.43;;
1777;SDS011;886;50.082;8.222;2023-03-14T02:04:21;3.20;;;1.23;;
1777;SDS011;886;50.082;8.222;2023-03-14T02:06:51;4.80;;;1.47;;
1777;SDS011;886;50.082;8.222;2023-03-14T02:09:24;4.33;;;1.73;;
1777;SDS011;886;50.082;8.222;2023-03-14T02:11:52;2.30;;;1.40;;
1777;SDS011;886;50.082;8.222;2023-03-14T02:14:22;6.23;;;1.63;;
1777;SDS011;886;50.082;8.222;2023-03-14T02:16:58;2.43;;;1.47;;
1777;SDS011;886;50.082;8.222;2023-03-14T02:19:30;3.70;;;2.10;;
1777;SDS011;886;50.082;8.222;2023-03-14T02:22:10;2.43;;;1.77;;
1777;SDS011;886;50.082;8.222;2023-03-14T02:24:41;1.83;;;1.30;;
1777;SDS011;886;50.082;8.222;2023-03-14T02:27:16;3.07;;;1.70;;
1777;SDS011;886;50.082;8.222;2023-03-14T02:29:47;3.10;;;1.70;;
1777;SDS011;886;50.082;8.222;2023-03-14T02:32:20;2.83;;;1.40;;
1777;SDS011;886;50.082;8.222;2023-03-14T02:34:49;4.03;;;1.50;;
1777;SDS011;886;50.082;8.222;2023-03-14T02:37:21;2.93;;;1.73;;
1777;SDS011;886;50.082;8.222;2023-03-14T02:39:53;3.80;;;2.00;;
1777;SDS011;886;50.082;8.222;2023-03-14T02:42:22;2.70;;;1.67;;
1777;SDS011;886;50.082;8.222;2023-03-14T02:44:50;2.27;;;1.60;;
1777;SDS011;886;50.082;8.222;2023-03-14T02:47:22;2.00;;;1.43;;
1777;SDS011;886;50.082;8.222;2023-03-14T02:49:55;1.87;;;1.43;;
1777;SDS011;886;50.082;8.222;2023-03-14T02:52:29;4.20;;;1.60;;
1777;SDS011;886;50.082;8.222;2023-03-14T02:54:56;2.60;;;1.70;;
1777;SDS011;886;50.082;8.222;2023-03-14T02:57:24;4.60;;;1.70;;
1777;SDS011;886;50.082;8.222;2023-03-14T02:59:51;6.70;;;2.07;;
1777;SDS011;886;50.082;8.222;2023-03-14T03:02:19;5.00;;;2.00;;
1777;SDS011;886;50.082;8.222;2023-03-14T03:04:46;2.40;;;1.37;;
1777;SDS011;886;50.082;8.222;2023-03-14T03:07:13;2.40;;;1.53;;
1777;SDS011;886;50.082;8.222;2023-03-14T03:09:41;6.03;;;1.63;;
1777;SDS011;886;50.082;8.222;2023-03-14T03:12:08;3.23;;;1.50;;
1777;SDS011;886;50.082;8.222;2023-03-14T03:14:37;1.87;;;1.30;;
1777;SDS011;886;50.082;8.222;2023-03-14T03:17:04;1.67;;;1.30;;
1777;SDS011;886;50.082;8.222;2023-03-14T03:19:32;2.40;;;1.87;;
1777;SDS011;886;50.082;8.222;2023-03-14T03:22:01;1.70;;;1.40;;
1777;SDS011;886;50.082;8.222;2023-03-14T03:24:28;4.27;;;1.50;;
1777;SDS011;886;50.082;8.222;2023-03-14T03:26:55;2.10;;;1.60;;
1777;SDS011;886;50.082;8.222;2023-03-14T03:29:23;3.20;;;2.00;;
1777;SDS011;886;50.082;8.222;2023-03-14T03:31:52;3.00;;;1.63;;
1777;SDS011;886;50.082;8.222;2023-03-14T03:34:19;1.87;;;1.60;;
1777;SDS011;886;50.082;8.222;2023-03-14T03:36:47;3.20;;;1.60;;
1777;SDS011;886;50.082;8.222;2023-03-14T03:39:14;2.83;;;2.13;;
1777;SDS011;886;50.082;8.222;2023-03-14T03:41:41;2.10;;;1.90;;
1777;SDS011;886;50.082;8.222;2023-03-14T03:44:08;2.70;;;2.10;;
1777;SDS011;886;50.082;8.222;2023-03-14T03:46:36;2.17;;;1.40;;
1777;SDS011;886;50.082;8.222;2023-03-14T03:49:04;3.70;;;2.00;;
1777;SDS011;886;50.082;8.222;2023-03-14T03:51:31;2.53;;;2.10;;
1777;SDS011;886;50.082;8.222;2023-03-14T03:53:58;3.03;;;1.83;;
1777;SDS011;886;50.082;8.222;2023-03-14T03:56:25;2.00;;;1.73;;
1777;SDS011;886;50.082;8.222;2023-03-14T03:58:52;3.70;;;1.80;;
1777;SDS011;886;50.082;8.222;2023-03-14T04:01:19;4.00;;;1.80;;
1777;SDS011;886;50.082;8.222;2023-03-14T04:03:46;5.87;;;1.77;;
1777;SDS011;886;50.082;8.222;2023-03-14T04:06:15;6.80;;;1.70;;
1777;SDS011;886;50.082;8.222;2023-03-14T04:08:43;6.13;;;1.77;;
1777;SDS011;886;50.082;8.222;2023-03-14T04:11:10;5.20;;;2.17;;
1777;SDS011;886;50.082;8.222;2023-03-14T04:13:37;3.77;;;2.10;;
1777;SDS011;886;50.082;8.222;2023-03-14T04:16:09;4.57;;;2.23;;
1777;SDS011;886;50.082;8.222;2023-03-14T04:18:42;5.43;;;2.07;;
1777;SDS011;886;50.082;8.222;2023-03-14T04:21:09;3.80;;;2.07;;
1777;SDS011;886;50.082;8.222;2023-03-14T04:23:37;5.57;;;2.43;;
1777;SDS011;886;50.082;8.222;2023-03-14T04:26:05;2.93;;;1.80;;
1777;SDS011;886;50.082;8.222;2023-03-14T04:28:32;2.80;;;1.93;;
1777;SDS011;886;50.082;8.222;2023-03-14T04:30:59;2.70;;;1.60;;
1777;SDS011;886;50.082;8.222;2023-03-14T04:33:33;4.90;;;1.70;;
1777;SDS011;886;50.082;8.222;2023-03-14T04:36:02;2.40;;;1.53;;
1777;SDS011;886;50.082;8.222;2023-03-14T04:38:30;2.00;;;1.73;;
1777;SDS011;886;50.082;8.222;2023-03-14T04:40:59;2.53;;;1.90;;
1777;SDS011;886;50.082;8.222;2023-03-14T04:43:27;2.20;;;1.50;;
1777;SDS011;886;50.082;8.222;2023-03-14T04:45:55;3.67;;;2.37;;
1777;SDS011;886;50.082;8.222;2023-03-14T04:48:24;4.90;;;1.90;;
1777;SDS011;886;50.082;8.222;2023-03-14T04:50:52;2.37;;;2.17;;
1777;SDS011;886;50.082;8.222;2023-03-14T04:53:19;4.30;;;1.83;;
1777;SDS011;886;50.082;8.222;2023-03-14T04:55:49;2.13;;;1.73;;
1777;SDS011;886;50.082;8.222;2023-03-14T04:58:19;4.30;;;1.53;;
1777;SDS011;886;50.082;8.222;2023-03-14T05:00:47;1.93;;;1.30;;
1777;SDS011;886;50.082;8.222;2023-03-14T05:03:15;3.30;;;1.40;;
1777;SDS011;886;50.082;8.222;2023-03-14T05:05:43;2.73;;;1.50;;
1777;SDS011;886;50.082;8.222;2023-03-14T05:08:11;4.00;;;2.40;;
1777;SDS011;886;50.082;8.222;2023-03-14T05:10:38;4.77;;;1.93;;
1777;SDS011;886;50.082;8.222;2023-03-14T05:13:06;5.27;;;1.40;;
1777;SDS011;886;50.082;8.222;2023-03-14T05:15:34;2.43;;;1.30;;
1777;SDS011;886;50.082;8.222;2023-03-14T05:18:01;2.80;;;1.53;;
1777;SDS011;886;50.082;8.222;2023-03-14T05:20:29;6.57;;;2.30;;
1777;SDS011;886;50.082;8.222;2023-03-14T05:22:56;1.70;;;1.60;;
1777;SDS011;886;50.082;8.222;2023-03-14T05:25:23;2.50;;;1.30;;
1777;SDS011;886;50.082;8.222;2023-03-14T05:27:53;2.23;;;1.20;;
1777;SDS011;886;50.082;8.222;2023-03-14T05:30:20;4.83;;;3.13;;
1777;SDS011;886;50.082;8.222;2023-03-14T05:32:49;2.53;;;2.00;;
1777;SDS011;886;50.082;8.222;2023-03-14T05:35:16;2.70;;;1.03;;
1777;SDS011;886;50.082;8.222;2023-03-14T05:37:44;3.10;;;1.40;;
1777;SDS011;886;50.082;8.222;2023-03-14T05:40:11;1.00;;;0.87;;
1777;SDS011;886;50.082;8.222;2023-03-14T05:42:38;1.90;;;1.23;;
1777;SDS011;886;50.082;8.222;2023-03-14T05:45:06;2.57;;;1.20;;
1777;SDS011;886;50.082;8.222;2023-03-14T05:47:34;3.83;;;1.43;;
1777;SDS011;886;50.082;8.222;2023-03-14T05:50:03;1.67;;;1.10;;
1777;SDS011;886;50.082;8.222;2023-03-14T05:52:31;1.50;;;1.40;;
1777;SDS011;886;50.082;8.222;2023-03-14T05:54:58;2.50;;;1.50;;
1777;SDS011;886;50.082;8.222;2023-03-14T05:57:25;2.87;;;2.53;;
1777;SDS011;886;50.082;8.222;2023-03-14T05:59:52;2.83;;;1.17;;
1777;SDS011;886;50.082;8.222;2023-03-14T06:02:20;2.50;;;0.90;;
1777;SDS011;886;50.082;8.222;2023-03-14T06:04:47;2.23;;;1.10;;
1777;SDS011;886;50.082;8.222;2023-03-14T06:07:16;3.07;;;1.23;;
1777;SDS011;886;50.082;8.222;2023-03-14T06:09:43;2.13;;;1.30;;
1777;SDS011;886;50.082;8.222;2023-03-14T06:12:10;2.70;;;2.03;;
1777;SDS011;886;50.082;8.222;2023-03-14T06:14:54;2.13;;;1.43;;
1777;SDS011;886;50.082;8.222;2023-03-14T06:17:21;1.50;;;1.27;;
1777;SDS011;886;50.082;8.222;2023-03-14T06:19:49;1.37;;;1.27;;
1777;SDS011;886;50.082;8.222;2023-03-14T06:22:17;2.17;;;1.20;;
1777;SDS011;886;50.082;8.222;2023-03-14T06:24:45;3.00;;;1.33;;
1777;SDS011;886;50.082;8.222;2023-03-14T06:27:12;1.30;;;1.20;;
1777;SDS011;886;50.082;8.222;2023-03-14T06:29:39;1.47;;;1.37;;
1777;SDS011;886;50.082;8.222;2023-03-14T06:32:07;7.17;;;1.90;;
1777;SDS011;886;50.082;8.222;2023-03-14T06:34:35;5.80;;;1.53;;
1777;SDS011;886;50.082;8.222;2023-03-14T06:37:02;4.57;;;1.80;;
1777;SDS011;886;50.082;8.222;2023-03-14T06:39:30;2.53;;;1.33;;
1777;SDS011;886;50.082;8.222;2023-03-14T06:41:58;4.40;;;1.73;;
1777;SDS011;886;50.082;8.222;2023-03-14T06:44:25;1.83;;;1.10;;
1777;SDS011;886;50.082;8.222;2023-03-14T06:46:52;1.70;;;1.20;;
1777;SDS011;886;50.082;8.222;2023-03-14T06:49:19;1.10;;;1.00;;
1777;SDS011;886;50.082;8.222;2023-03-14T06:51:46;2.40;;;1.20;;
1777;SDS011;886;50.082;8.222;2023-03-14T06:54:14;1.20;;;1.10;;
1777;SDS011;886;50.082;8.222;2023-03-14T06:56:42;1.10;;;1.00;;
1777;SDS011;886;50.082;8.222;2023-03-14T06:59:09;1.80;;;1.20;;
1777;SDS011;886;50.082;8.222;2023-03-14T07:01:36;1.87;;;1.17;;
1777;SDS011;886;50.082;8.222;2023-03-14T07:04:04;3.80;;;1.50;;
1777;SDS011;886;50.082;8.222;2023-03-14T07:06:32;1.60;;;1.10;;
1777;SDS011;886;50.082;8.222;2023-03-14T07:08:59;2.07;;;1.20;;
1777;SDS011;886;50.082;8.222;2023-03-14T07:11:48;1.40;;;1.20;;
1777;SDS011;886;50.082;8.222;2023-03-14T07:14:15;2.50;;;1.40;;
1777;SDS011;886;50.082;8.222;2023-03-14T07:16:42;1.50;;;0.93;;
1777;SDS011;886;50.082;8.222;2023-03-14T07:19:10;2.07;;;1.00;;
1777;SDS011;886;50.082;8.222;2023-03-14T07:21:37;2.13;;;1.03;;
1777;SDS011;886;50.082;8.222;2023-03-14T07:24:04;1.30;;;1.20;;
1777;SDS011;886;50.082;8.222;2023-03-14T07:26:32;1.50;;;1.30;;
1777;SDS011;886;50.082;8.222;2023-03-14T07:29:00;3.97;;;1.37;;
1777;SDS011;886;50.082;8.222;2023-03-14T07:31:30;2.50;;;1.47;;
1777;SDS011;886;50.082;8.222;2023-03-14T07:33:57;2.63;;;1.30;;
1777;SDS011;886;50.082;8.222;2023-03-14T07:36:25;1.20;;;1.10;;
1777;SDS011;886;50.082;8.222;2023-03-14T07:38:51;1.83;;;1.63;;
1777;SDS011;886;50.082;8.222;2023-03-14T07:41:19;2.50;;;1.10;;
1777;SDS011;886;50.082;8.222;2023-03-14T07:43:46;1.20;;;1.10;;
1777;SDS011;886;50.082;8.222;2023-03-14T07:46:15;3.37;;;1.13;;
1777;SDS011;886;50.082;8.222;2023-03-14T07:48:44;1.67;;;1.10;;
1777;SDS011;886;50.082;8.222;2023-03-14T07:51:11;1.47;;;1.20;;
1777;SDS011;886;50.082;8.222;2023-03-14T07:53:39;1.83;;;1.13;;
1777;SDS011;886;50.082;8.222;2023-03-14T07:56:07;1.50;;;1.40;;
1777;SDS011;886;50.082;8.222;2023-03-14T07:58:34;1.20;;;1.00;;
1777;SDS011;886;50.082;8.222;2023-03-14T08:01:01;1.30;;;1.10;;
1777;SDS011;886;50.082;8.222;2023-03-14T08:03:31;1.13;;;1.03;;
1777;SDS011;886;50.082;8.222;2023-03-14T08:05:58;2.27;;;1.10;;
1777;SDS011;886;50.082;8.222;2023-03-14T08:08:26;2.63;;;1.43;;
1777;SDS011;886;50.082;8.222;2023-03-14T08:10:53;1.37;;;1.27;;
1777;SDS011;886;50.082;8.222;2023-03-14T08:13:20;1.50;;;1.30;;
1777;SDS011;886;50.082;8.222;2023-03-14T08:15:49;1.60;;;1.10;;
1777;SDS011;886;50.082;8.222;2023-03-14T08:18:17;1.73;;;1.13;;
1777;SDS011;886;50.082;8.222;2023-03-14T08:20:46;1.77;;;1.20;;
1777;SDS011;886;50.082;8.222;2023-03-14T08:23:13;1.40;;;1.30;;
1777;SDS011;886;50.082;8.222;2023-03-14T08:25:40;2.20;;;1.20;;
1777;SDS011;886;50.082;8.222;2023-03-14T08:28:07;2.47;;;1.10;;
1777;SDS011;886;50.082;8.222;2023-03-14T08:30:34;4.47;;;2.00;;
1777;SDS011;886;50.082;8.222;2023-03-14T08:33:01;1.73;;;1.37;;
1777;SDS011;886;50.082;8.222;2023-03-14T08:35:29;2.30;;;1.40;;
1777;SDS011;886;50.082;8.222;2023-03-14T08:37:57;2.70;;;1.20;;
1777;SDS011;886;50.082;8.222;2023-03-14T08:40:25;3.57;;;1.47;;
1777;SDS011;886;50.082;8.222;2023-03-14T08:42:52;2.90;;;1.60;;
1777;SDS011;886;50.082;8.222;2023-03-14T08:45:19;2.60;;;1.57;;
1777;SDS011;886;50.082;8.222;2023-03-14T08:47:47;5.60;;;1.40;;
1777;SDS011;886;50.082;8.222;2023-03-14T08:50:14;2.03;;;1.80;;
1777;SDS011;886;50.082;8.222;2023-03-14T08:52:42;1.80;;;1.70;;
1777;SDS011;886;50.082;8.222;2023-03-14T08:55:11;2.50;;;1.20;;
1777;SDS011;886;50.082;8.222;2023-03-14T08:57:38;1.30;;;1.20;;
1777;SDS011;886;50.082;8.222;2023-03-14T09:00:06;1.57;;;1.33;;
1777;SDS011;886;50.082;8.222;2023-03-14T09:02:38;1.60;;;1.50;;
1777;SDS011;886;50.082;8.222;2023-03-14T09:05:06;1.93;;;1.40;;
1777;SDS011;886;50.082;8.222;2023-03-14T09:07:34;1.70;;;1.60;;
1777;SDS011;886;50.082;8.222;2023-03-14T09:10:02;1.67;;;1.43;;
1777;SDS011;886;50.082;8.222;2023-03-14T09:12:32;1.33;;;1.23;;
1777;SDS011;886;50.082;8.222;2023-03-14T09:14:59;3.63;;;1.23;;
1777;SDS011;886;50.082;8.222;2023-03-14T09:17:26;3.30;;;1.33;;
1777;SDS011;886;50.082;8.222;2023-03-14T09:19:53;2.03;;;1.30;;
1777;SDS011;886;50.082;8.222;2023-03-14T09:22:20;1.20;;;1.10;;
1777;SDS011;886;50.082;8.222;2023-03-14T09:24:47;1.43;;;1.23;;
1777;SDS011;886;50.082;8.222;2023-03-14T09:27:14;1.83;;;1.30;;
1777;SDS011;886;50.082;8.222;2023-03-14T09:29:44;1.53;;;1.10;;
1777;SDS011;886;50.082;8.222;2023-03-14T09:32:11;2.80;;;1.43;;
1777;SDS011;886;50.082;8.222;2023-03-14T09:34:38;1.80;;;1.70;;
1777;SDS011;886;50.082;8.222;2023-03-14T09:37:05;1.47;;;1.30;;
1777;SDS011;886;50.082;8.222;2023-03-14T09:39:32;1.63;;;1.50;;
1777;SDS011;886;50.082;8.222;2023-03-14T09:42:01;3.30;;;1.47;;
1777;SDS011;886;50.082;8.222;2023-03-14T09:44:32;1.20;;;1.10;;
1777;SDS011;886;50.082;8.222;2023-03-14T09:47:04;1.30;;;1.20;;
1777;SDS011;886;50.082;8.222;2023-03-14T09:49:38;1.20;;;1.10;;
1777;SDS011;886;50.082;8.222;2023-03-14T09:52:10;1.73;;;1.40;;
1777;SDS011;886;50.082;8.222;2023-03-14T09:54:42;4.10;;;1.73;;
1777;SDS011;886;50.082;8.222;2023-03-14T09:57:15;2.53;;;1.20;;
1777;SDS011;886;50.082;8.222;2023-03-14T09:59:45;1.23;;;1.00;;
1777;SDS011;886;50.082;8.222;2023-03-14T10:02:18;1.10;;;1.00;;
1777;SDS011;886;50.082;8.222;2023-03-14T10:04:47;1.50;;;1.40;;
1777;SDS011;886;50.082;8.222;2023-03-14T10:07:18;1.80;;;1.23;;
1777;SDS011;886;50.082;8.222;2023-03-14T10:09:49;5.00;;;1.27;;
1777;SDS011;886;50.082;8.222;2023-03-14T10:12:35;2.17;;;1.40;;
1777;SDS011;886;50.082;8.222;2023-03-14T10:15:06;1.17;;;0.90;;
1777;SDS011;886;50.082;8.222;2023-03-14T10:17:41;1.30;;;1.10;;
1777;SDS011;886;50.082;8.222;2023-03-14T10:20:25;1.37;;;1.20;;
1777;SDS011;886;50.082;8.222;2023-03-14T10:23:00;2.40;;;1.20;;
1777;SDS011;886;50.082;8.222;2023-03-14T10:25:30;1.30;;;1.20;;
1777;SDS011;886;50.082;8.222;2023-03-14T10:27:59;1.57;;;1.27;;
1777;SDS011;886;50.082;8.222;2023-03-14T10:30:28;1.70;;;1.40;;
1777;SDS011;886;50.082;8.222;2023-03-14T10:33:09;1.30;;;1.20;;
1777;SDS011;886;50.082;8.222;2023-03-14T10:35:38;1.67;;;1.20;;
1777;SDS011;886;50.082;8.222;2023-03-14T10:38:10;1.40;;;1.30;;
1777;SDS011;886;50.082;8.222;2023-03-14T10:40:40;1.50;;;1.20;;
1777;SDS011;886;50.082;8.222;2023-03-14T10:43:16;1.20;;;1.10;;
1777;SDS011;886;50.082;8.222;2023-03-14T10:45:51;2.50;;;1.30;;
1777;SDS011;886;50.082;8.222;2023-03-14T10:48:28;2.30;;;2.10;;
1777;SDS011;886;50.082;8.222;2023-03-14T10:51:02;5.10;;;1.60;;
1777;SDS011;886;50.082;8.222;2023-03-14T10:53:33;1.50;;;1.40;;
1777;SDS011;886;50.082;8.222;2023-03-14T10:56:07;1.27;;;1.13;;
1777;SDS011;886;50.082;8.222;2023-03-14T10:58:39;1.27;;;1.17;;
1777;SDS011;886;50.082;8.222;2023-03-14T11:01:13;1.20;;;1.10;;
1777;SDS011;886;50.082;8.222;2023-03-14T11:04:15;2.13;;;1.17;;
1777;SDS011;886;50.082;8.222;2023-03-14T11:06:59;1.37;;;1.10;;
1777;SDS011;886;50.082;8.222;2023-03-14T11:09:34;1.40;;;1.20;;
1777;SDS011;886;50.082;8.222;2023-03-14T11:12:13;1.20;;;1.10;;
1777;SDS011;886;50.082;8.222;2023-03-14T11:15:15;1.10;;;1.00;;
1777;SDS011;886;50.082;8.222;2023-03-14T11:17:50;1.63;;;1.10;;
1777;SDS011;886;50.082;8.222;2023-03-14T11:20:37;1.00;;;0.90;;
1777;SDS011;886;50.082;8.222;2023-03-14T11:23:12;1.40;;;1.10;;
1777;SDS011;886;50.082;8.222;2023-03-14T11:25:45;1.67;;;1.57;;
1777;SDS011;886;50.082;8.222;2023-03-14T11:28:22;1.00;;;0.80;;
1777;SDS011;886;50.082;8.222;2023-03-14T11:30:57;0.80;;;0.77;;
1777;SDS011;886;50.082;8.222;2023-03-14T11:33:32;1.47;;;0.83;;
1777;SDS011;886;50.082;8.222;2023-03-14T11:36:06;1.13;;;1.03;;
1777;SDS011;886;50.082;8.222;2023-03-14T11:38:37;0.93;;;0.80;;
1777;SDS011;886;50.082;8.222;2023-03-14T11:41:10;0.97;;;0.87;;
1777;SDS011;886;50.082;8.222;2023-03-14T11:43:45;1.20;;;1.10;;
1777;SDS011;886;50.082;8.222;2023-03-14T11:46:16;1.00;;;0.90;;
1777;SDS011;886;50.082;8.222;2023-03-14T11:48:51;1.20;;;1.10;;
1777;SDS011;886;50.082;8.222;2023-03-14T11:51:28;0.90;;;0.80;;
1777;SDS011;886;50.082;8.222;2023-03-14T11:54:01;0.83;;;0.77;;
1777;SDS011;886;50.082;8.222;2023-03-14T11:56:39;1.00;;;0.90;;
1777;SDS011;886;50.082;8.222;2023-03-14T11:59:14;1.87;;;0.90;;
1777;SDS011;886;50.082;8.222;2023-03-14T12:01:52;1.27;;;0.80;;
1777;SDS011;886;50.082;8.222;2023-03-14T12:04:26;0.90;;;0.70;;
1777;SDS011;886;50.082;8.222;2023-03-14T12:07:14;1.40;;;1.20;;
1777;SDS011;886;50.082;8.222;2023-03-14T12:09:46;1.70;;;1.50;;
1777;SDS011;886;50.082;8.222;2023-03-14T12:12:17;1.47;;;0.90;;
1777;SDS011;886;50.082;8.222;2023-03-14T12:14:52;1.20;;;0.90;;
1777;SDS011;886;50.082;8.222;2023-03-14T12:17:23;0.90;;;0.80;;
1777;SDS011;886;50.082;8.222;2023-03-14T12:20:00;1.00;;;0.70;;
1777;SDS011;886;50.082;8.222;2023-03-14T12:22:34;0.80;;;0.70;;
1777;SDS011;886;50.082;8.222;2023-03-14T12:25:04;1.10;;;1.00;;
1777;SDS011;886;50.082;8.222;2023-03-14T12:27:45;0.80;;;0.70;;
1777;SDS011;886;50.082;8.222;2023-03-14T12:30:30;1.47;;;0.70;;
1777;SDS011;886;50.082;8.222;2023-03-14T12:33:10;0.80;;;0.60;;
1777;SDS011;886;50.082;8.222;2023-03-14T12:35:59;0.80;;;0.70;;
1777;SDS011;886;50.082;8.222;2023-03-14T12:38:51;0.90;;;0.73;;
1777;SDS011;886;50.082;8.222;2023-03-14T12:41:26;1.00;;;0.90;;
1777;SDS011;886;50.082;8.222;2023-03-14T12:50:19;1.10;;;1.00;;
1777;SDS011;886;50.082;8.222;2023-03-14T12:53:00;0.80;;;0.60;;
1777;SDS011;886;50.082;8.222;2023-03-14T12:56:07;1.27;;;0.80;;
1777;SDS011;886;50.082;8.222;2023-03-14T12:58:50;0.80;;;0.70;;
1777;SDS011;886;50.082;8.222;2023-03-14T13:01:35;0.87;;;0.70;;
1777;SDS011;886;50.082;8.222;2023-03-14T13:04:07;0.97;;;0.70;;
1777;SDS011;886;50.082;8.222;2023-03-14T13:06:47;1.10;;;0.90;;
1777;SDS011;886;50.082;8.222;2023-03-14T13:12:30;0.90;;;0.70;;
1777;SDS011;886;50.082;8.222;2023-03-14T13:15:18;1.50;;;1.27;;
1777;SDS011;886;50.082;8.222;2023-03-14T13:17:50;0.90;;;0.80;;
1777;SDS011;886;50.082;8.222;2023-03-14T13:20:23;0.80;;;0.70;;
1777;SDS011;886;50.082;8.222;2023-03-14T13:22:55;0.80;;;0.70;;
1777;SDS011;886;50.082;8.222;2023-03-14T13:25:22;0.90;;;0.80;;
1777;SDS011;886;50.082;8.222;2023-03-14T13:27:53;2.60;;;1.00;;
1777;SDS011;886;50.082;8.222;2023-03-14T13:30:23;1.00;;;0.90;;
1777;SDS011;886;50.082;8.222;2023-03-14T13:32:53;1.30;;;1.10;;
1777;SDS011;886;50.082;8.222;2023-03-14T13:35:23;1.37;;;1.20;;
1777;SDS011;886;50.082;8.222;2023-03-14T13:37:56;0.97;;;0.80;;
1777;SDS011;886;50.082;8.222;2023-03-14T13:40:37;2.70;;;0.80;;
1777;SDS011;886;50.082;8.222;2023-03-14T13:43:11;0.80;;;0.70;;
1777;SDS011;886;50.082;8.222;2023-03-14T13:45:47;1.00;;;0.70;;
1777;SDS011;886;50.082;8.222;2023-03-14T13:48:19;2.33;;;0.90;;
1777;SDS011;886;50.082;8.222;2023-03-14T13:50:50;0.80;;;0.70;;
1777;SDS011;886;50.082;8.222;2023-03-14T13:53:19;1.73;;;1.20;;
1777;SDS011;886;50.082;8.222;2023-03-14T13:55:47;1.23;;;1.13;;
1777;SDS011;886;50.082;8.222;2023-03-14T13:58:27;1.60;;;1.50;;
1777;SDS011;886;50.082;8.222;2023-03-14T14:00:58;1.60;;;1.50;;
1777;SDS011;886;50.082;8.222;2023-03-14T14:03:30;1.40;;;1.30;;
1777;SDS011;886;50.082;8.222;2023-03-14T14:06:00;1.17;;;1.07;;
1777;SDS011;886;50.082;8.222;2023-03-14T14:08:27;1.20;;;1.10;;
1777;SDS011;886;50.082;8.222;2023-03-14T14:10:57;1.50;;;1.40;;
1777;SDS011;886;50.082;8.222;2023-03-14T14:13:29;1.83;;;1.63;;
1777;SDS011;886;50.082;8.222;2023-03-14T14:16:01;1.53;;;1.43;;
1777;SDS011;886;50.082;8.222;2023-03-14T14:18:30;1.40;;;1.10;;
1777;SDS011;886;50.082;8.222;2023-03-14T14:20:58;1.50;;;1.40;;
1777;SDS011;886;50.082;8.222;2023-03-14T14:23:26;1.40;;;1.30;;
1777;SDS011;886;50.082;8.222;2023-03-14T14:25:55;2.03;;;1.40;;
1777;SDS011;886;50.082;8.222;2023-03-14T14:28:25;1.30;;;1.20;;
1777;SDS011;886;50.082;8.222;2023-03-14T14:31:03;1.20;;;1.10;;
1777;SDS011;886;50.082;8.222;2023-03-14T14:33:43;1.00;;;0.90;;
1777;SDS011;886;50.082;8.222;2023-03-14T14:36:14;2.07;;;0.90;;
1777;SDS011;886;50.082;8.222;2023-03-14T14:38:56;2.60;;;1.10;;
1777;SDS011;886;50.082;8.222;2023-03-14T14:41:29;0.90;;;0.70;;
1777;SDS011;886;50.082;8.222;2023-03-14T14:43:59;1.20;;;0.88;;
1777;SDS011;886;50.082;8.222;2023-03-14T14:46:28;0.98;;;0.80;;
1777;SDS011;886;50.082;8.222;2023-03-14T14:49:01;1.98;;;1.20;;
1777;SDS011;886;50.082;8.222;2023-03-14T14:51:32;1.23;;;0.90;;
1777;SDS011;886;50.082;8.222;2023-03-14T14:54:13;1.08;;;0.98;;
1777;SDS011;886;50.082;8.222;2023-03-14T14:56:46;1.00;;;0.90;;
1777;SDS011;886;50.082;8.222;2023-03-14T14:59:22;1.33;;;1.23;;
1777;SDS011;886;50.082;8.222;2023-03-14T15:01:56;1.45;;;0.90;;
1777;SDS011;886;50.082;8.222;2023-03-14T15:04:25;1.00;;;0.80;;
1777;SDS011;886;50.082;8.222;2023-03-14T15:06:53;0.85;;;0.73;;
1777;SDS011;886;50.082;8.222;2023-03-14T15:09:20;0.90;;;0.70;;
1777;SDS011;886;50.082;8.222;2023-03-14T15:11:48;1.55;;;0.90;;
1777;SDS011;886;50.082;8.222;2023-03-14T15:14:15;0.90;;;0.80;;
1777;SDS011;886;50.082;8.222;2023-03-14T15:16:44;1.40;;;1.30;;
1777;SDS011;886;50.082;8.222;2023-03-14T15:19:19;1.02;;;0.90;;
1777;SDS011;886;50.082;8.222;2023-03-14T15:21:51;1.60;;;1.50;;
1777;SDS011;886;50.082;8.222;2023-03-14T15:24:19;1.45;;;1.35;;
1777;SDS011;886;50.082;8.222;2023-03-14T15:26:46;1.27;;;1.17;;
1777;SDS011;886;50.082;8.222;2023-03-14T15:29:13;1.30;;;1.20;;
1777;SDS011;886;50.082;8.222;2023-03-14T15:31:42;1.33;;;1.13;;
1777;SDS011;886;50.082;8.222;2023-03-14T15:34:11;1.40;;;1.30;;
1777;SDS011;886;50.082;8.222;2023-03-14T15:36:38;2.53;;;1.55;;
1777;SDS011;886;50.082;8.222;2023-03-14T15:39:06;1.60;;;1.50;;
1777;SDS011;886;50.082;8.222;2023-03-14T15:41:35;1.50;;;1.38;;
1777;SDS011;886;50.082;8.222;2023-03-14T15:44:03;1.80;;;1.50;;
1777;SDS011;886;50.082;8.222;2023-03-14T15:46:30;3.47;;;1.15;;
1777;SDS011;886;50.082;8.222;2023-03-14T15:48:59;1.20;;;1.10;;
1777;SDS011;886;50.082;8.222;2023-03-14T15:51:26;1.40;;;1.30;;
1777;SDS011;886;50.082;8.222;2023-03-14T15:53:53;3.53;;;1.60;;
1777;SDS011;886;50.082;8.222;2023-03-14T15:56:20;1.40;;;1.30;;
1777;SDS011;886;50.082;8.222;2023-03-14T15:58:51;1.75;;;1.55;;